VLVT/VTE METAR and TAF weather

Enter ICAO airport designator
Station Type Date Time Source
VLVT METAR 2019/05/25 13:30 UTC NOAA

VLVT 251330Z 12006KT 4000 BR SCT020 BKN040 28/26 Q1005 NOSIG


Station Type Date Time Source
VLVT Decoded METAR 2019/05/25 13:30 UTC NOAA

Vientiane, Laos (VLVT) 17-57N 102-34E 171M
May 25, 2019 - 09:30 AM EDT / 2019.05.25 1330 UTC
Wind: from the ESE (120 degrees) at 7 MPH (6 KT):0
Visibility: 2 mile(s):0
Sky conditions: mostly cloudy
Weather: mist
Temperature: 82 F (28 C)
Dew Point: 78 F (26 C)
Relative Humidity: 88%
Pressure (altimeter): 29.68 in. Hg (1005 hPa)
ob: VLVT 251330Z 12006KT 4000 BR SCT020 BKN040 28/26 Q1005 NOSIG
cycle: 13

Station Type Date Time Source
VLVT TAF 2019/05/25 12:09 UTC NOAA

TAF TAF VLVT 251100Z 2512/2612 27004KT 8000 SCT020 SCT200
TEMPO 2514/2520 4000 BR FEW016 SCT040

Example: see airport list